sensor_id;sensor_type;location;lat;lon;timestamp;pressure;altitude;pressure_sealevel;temperature;humidity
79457;BME280;69494;43.654;3.884;2023-04-25T17:19:11;100920.59;;;18.43;40.41
79457;BME280;69494;43.654;3.884;2023-04-25T17:21:37;100920.06;;;18.35;43.63
79457;BME280;69494;43.654;3.884;2023-04-25T17:24:02;100933.78;;;18.21;42.84
79457;BME280;69494;43.654;3.884;2023-04-25T17:26:30;100944.63;;;17.91;43.97
79457;BME280;69494;43.654;3.884;2023-04-25T17:28:55;100943.94;;;17.86;45.01
79457;BME280;69494;43.654;3.884;2023-04-25T17:31:21;100950.56;;;17.73;47.14
79457;BME280;69494;43.654;3.884;2023-04-25T17:33:47;100949.09;;;17.66;45.65
79457;BME280;69494;43.654;3.884;2023-04-25T17:36:13;100946.16;;;17.51;47.16
79457;BME280;69494;43.654;3.884;2023-04-25T17:38:39;100956.53;;;17.55;50.05
79457;BME280;69494;43.654;3.884;2023-04-25T17:41:04;100964.81;;;17.44;50.90
79457;BME280;69494;43.654;3.884;2023-04-25T17:43:30;100969.09;;;17.46;53.93
79457;BME280;69494;43.654;3.884;2023-04-25T17:45:57;100971.03;;;17.18;56.62
79457;BME280;69494;43.654;3.884;2023-04-25T17:48:22;100982.28;;;16.96;56.89
79457;BME280;69494;43.654;3.884;2023-04-25T17:50:48;100981.28;;;16.73;57.47
79457;BME280;69494;43.654;3.884;2023-04-25T17:53:14;100979.72;;;16.68;60.73
79457;BME280;69494;43.654;3.884;2023-04-25T17:55:39;100983.41;;;16.62;61.10
79457;BME280;69494;43.654;3.884;2023-04-25T17:58:08;100984.59;;;16.78;60.22
79457;BME280;69494;43.654;3.884;2023-04-25T18:00:35;100983.59;;;16.29;58.99
79457;BME280;69494;43.654;3.884;2023-04-25T18:03:01;100991.06;;;16.42;58.90
79457;BME280;69494;43.654;3.884;2023-04-25T18:05:26;100993.00;;;16.36;58.79
79457;BME280;69494;43.654;3.884;2023-04-25T18:07:52;100990.16;;;16.16;57.97
79457;BME280;69494;43.654;3.884;2023-04-25T18:10:17;100985.53;;;16.24;58.53
79457;BME280;69494;43.654;3.884;2023-04-25T18:12:42;100997.16;;;16.15;57.27
79457;BME280;69494;43.654;3.884;2023-04-25T18:15:08;101000.88;;;16.08;54.53
79457;BME280;69494;43.654;3.884;2023-04-25T18:17:34;101008.25;;;16.24;55.45
79457;BME280;69494;43.654;3.884;2023-04-25T18:20:11;101009.59;;;16.37;56.01
79457;BME280;69494;43.654;3.884;2023-04-25T18:22:40;101008.75;;;16.36;54.50
79457;BME280;69494;43.654;3.884;2023-04-25T18:25:06;101007.19;;;16.29;53.36
79457;BME280;69494;43.654;3.884;2023-04-25T18:27:34;101009.97;;;16.25;53.84
79457;BME280;69494;43.654;3.884;2023-04-25T18:29:59;101023.59;;;16.08;51.40
79457;BME280;69494;43.654;3.884;2023-04-25T18:32:25;101025.94;;;16.17;52.17
79457;BME280;69494;43.654;3.884;2023-04-25T18:34:53;101027.13;;;16.07;52.00
79457;BME280;69494;43.654;3.884;2023-04-25T18:37:19;101029.47;;;16.16;53.89
79457;BME280;69494;43.654;3.884;2023-04-25T18:39:45;101026.44;;;16.00;52.12
79457;BME280;69494;43.654;3.884;2023-04-25T18:42:10;101021.09;;;16.05;52.33
79457;BME280;69494;43.654;3.884;2023-04-25T18:44:35;101021.81;;;16.10;52.98
79457;BME280;69494;43.654;3.884;2023-04-25T18:47:06;101031.38;;;16.11;50.30
79457;BME280;69494;43.654;3.884;2023-04-25T18:49:32;101039.13;;;16.14;50.98
79457;BME280;69494;43.654;3.884;2023-04-25T18:51:58;101048.00;;;16.10;51.45
79457;BME280;69494;43.654;3.884;2023-04-25T18:54:23;101047.28;;;16.05;49.69
79457;BME280;69494;43.654;3.884;2023-04-25T18:56:49;101042.41;;;15.92;49.66
79457;BME280;69494;43.654;3.884;2023-04-25T18:59:14;101044.09;;;15.93;49.79
79457;BME280;69494;43.654;3.884;2023-04-25T19:01:41;101054.44;;;15.99;48.79
79457;BME280;69494;43.654;3.884;2023-04-25T19:04:07;101062.44;;;15.93;49.73
79457;BME280;69494;43.654;3.884;2023-04-25T19:06:34;101067.81;;;15.90;49.84
79457;BME280;69494;43.654;3.884;2023-04-25T19:08:59;101065.03;;;15.95;49.78
79457;BME280;69494;43.654;3.884;2023-04-25T19:11:25;101075.31;;;16.03;49.67
79457;BME280;69494;43.654;3.884;2023-04-25T19:13:51;101078.16;;;15.93;50.26
79457;BME280;69494;43.654;3.884;2023-04-25T19:16:17;101086.78;;;15.97;49.67
79457;BME280;69494;43.654;3.884;2023-04-25T19:18:42;101085.13;;;15.94;49.19
79457;BME280;69494;43.654;3.884;2023-04-25T19:21:08;101086.88;;;15.95;48.53
79457;BME280;69494;43.654;3.884;2023-04-25T19:23:34;101089.50;;;15.95;49.57
79457;BME280;69494;43.654;3.884;2023-04-25T19:25:59;101086.88;;;15.95;49.37
79457;BME280;69494;43.654;3.884;2023-04-25T19:28:25;101093.84;;;15.95;49.44
79457;BME280;69494;43.654;3.884;2023-04-25T19:30:51;101091.28;;;15.93;49.12
79457;BME280;69494;43.654;3.884;2023-04-25T19:33:17;101102.97;;;15.81;49.64
79457;BME280;69494;43.654;3.884;2023-04-25T19:35:43;101098.59;;;15.82;50.52
79457;BME280;69494;43.654;3.884;2023-04-25T19:38:08;101103.88;;;15.80;49.44
79457;BME280;69494;43.654;3.884;2023-04-25T19:40:33;101102.28;;;15.75;50.23
79457;BME280;69494;43.654;3.884;2023-04-25T19:42:59;101111.22;;;15.66;49.84
79457;BME280;69494;43.654;3.884;2023-04-25T19:45:25;101104.44;;;15.59;49.90
79457;BME280;69494;43.654;3.884;2023-04-25T19:47:52;101107.56;;;15.40;49.65
79457;BME280;69494;43.654;3.884;2023-04-25T19:50:17;101116.53;;;15.30;50.57
79457;BME280;69494;43.654;3.884;2023-04-25T19:52:43;101116.44;;;15.35;50.25
79457;BME280;69494;43.654;3.884;2023-04-25T19:55:09;101114.94;;;15.24;50.65
79457;BME280;69494;43.654;3.884;2023-04-25T19:57:35;101120.31;;;15.18;51.12
79457;BME280;69494;43.654;3.884;2023-04-25T20:00:07;101118.06;;;15.04;51.43
79457;BME280;69494;43.654;3.884;2023-04-25T20:02:34;101120.28;;;15.20;50.17
79457;BME280;69494;43.654;3.884;2023-04-25T20:05:01;101129.13;;;15.16;49.97
79457;BME280;69494;43.654;3.884;2023-04-25T20:07:27;101126.53;;;15.14;51.27
79457;BME280;69494;43.654;3.884;2023-04-25T20:09:53;101126.00;;;15.01;50.54
79457;BME280;69494;43.654;3.884;2023-04-25T20:12:18;101117.31;;;14.99;51.30
79457;BME280;69494;43.654;3.884;2023-04-25T20:14:44;101115.72;;;14.94;51.50
79457;BME280;69494;43.654;3.884;2023-04-25T20:17:09;101108.78;;;14.91;50.34
79457;BME280;69494;43.654;3.884;2023-04-25T20:19:36;101121.19;;;14.84;51.26
79457;BME280;69494;43.654;3.884;2023-04-25T20:22:02;101121.88;;;14.91;51.54
79457;BME280;69494;43.654;3.884;2023-04-25T20:24:27;101125.44;;;14.89;52.63
79457;BME280;69494;43.654;3.884;2023-04-25T20:26:53;101140.56;;;14.76;53.14
79457;BME280;69494;43.654;3.884;2023-04-25T20:29:23;101149.50;;;14.65;53.98
79457;BME280;69494;43.654;3.884;2023-04-25T20:31:50;101147.41;;;14.41;54.71
79457;BME280;69494;43.654;3.884;2023-04-25T20:34:19;101145.94;;;14.29;56.34
79457;BME280;69494;43.654;3.884;2023-04-25T20:36:49;101145.06;;;14.27;56.46
79457;BME280;69494;43.654;3.884;2023-04-25T20:39:16;101134.38;;;14.39;56.87
79457;BME280;69494;43.654;3.884;2023-04-25T20:41:42;101136.91;;;14.42;56.29
79457;BME280;69494;43.654;3.884;2023-04-25T20:44:09;101152.03;;;14.28;56.32
79457;BME280;69494;43.654;3.884;2023-04-25T20:46:36;101153.09;;;14.19;57.86
79457;BME280;69494;43.654;3.884;2023-04-25T20:49:01;101155.09;;;14.06;58.47
79457;BME280;69494;43.654;3.884;2023-04-25T20:51:32;101151.44;;;14.15;58.18
79457;BME280;69494;43.654;3.884;2023-04-25T20:53:57;101158.66;;;14.02;58.66
79457;BME280;69494;43.654;3.884;2023-04-25T20:56:24;101151.44;;;14.15;58.18
79457;BME280;69494;43.654;3.884;2023-04-25T20:58:50;101154.16;;;14.09;57.60
79457;BME280;69494;43.654;3.884;2023-04-25T21:01:17;101162.94;;;14.06;58.25
79457;BME280;69494;43.654;3.884;2023-04-25T21:03:43;101162.03;;;14.07;58.42
79457;BME280;69494;43.654;3.884;2023-04-25T21:06:09;101165.03;;;13.87;58.35
79457;BME280;69494;43.654;3.884;2023-04-25T21:08:34;101174.84;;;13.75;58.95
79457;BME280;69494;43.654;3.884;2023-04-25T21:11:00;101150.41;;;13.79;58.85
79457;BME280;69494;43.654;3.884;2023-04-25T21:13:26;101149.19;;;13.50;58.92
79457;BME280;69494;43.654;3.884;2023-04-25T21:15:53;101154.38;;;13.51;59.63
79457;BME280;69494;43.654;3.884;2023-04-25T21:18:19;101169.16;;;13.54;60.56
79457;BME280;69494;43.654;3.884;2023-04-25T21:20:44;101166.78;;;13.40;61.20
79457;BME280;69494;43.654;3.884;2023-04-25T21:23:10;101176.44;;;13.33;62.07
79457;BME280;69494;43.654;3.884;2023-04-25T21:25:36;101178.09;;;13.38;61.92
79457;BME280;69494;43.654;3.884;2023-04-25T21:28:01;101178.22;;;13.30;62.33
79457;BME280;69494;43.654;3.884;2023-04-25T21:30:27;101169.59;;;13.25;62.36
79457;BME280;69494;43.654;3.884;2023-04-25T21:32:53;101168.63;;;13.32;62.18
79457;BME280;69494;43.654;3.884;2023-04-25T21:35:19;101166.13;;;13.24;62.87
79457;BME280;69494;43.654;3.884;2023-04-25T21:37:45;101165.31;;;13.21;63.10
79457;BME280;69494;43.654;3.884;2023-04-25T21:40:11;101170.69;;;13.11;63.87
79457;BME280;69494;43.654;3.884;2023-04-25T21:42:38;101178.59;;;13.07;65.05
79457;BME280;69494;43.654;3.884;2023-04-25T21:45:05;101174.47;;;12.92;64.77
79457;BME280;69494;43.654;3.884;2023-04-25T21:47:31;101178.94;;;12.84;64.51
79457;BME280;69494;43.654;3.884;2023-04-25T21:49:57;101178.38;;;12.63;64.97
79457;BME280;69494;43.654;3.884;2023-04-25T21:52:23;101181.13;;;12.51;65.13
79457;BME280;69494;43.654;3.884;2023-04-25T21:54:49;101183.78;;;12.46;65.13
79457;BME280;69494;43.654;3.884;2023-04-25T21:57:14;101184.63;;;12.48;64.64
79457;BME280;69494;43.654;3.884;2023-04-25T21:59:41;101194.22;;;12.45;65.08
79457;BME280;69494;43.654;3.884;2023-04-25T22:02:08;101200.66;;;12.16;67.07
79457;BME280;69494;43.654;3.884;2023-04-25T22:04:34;101200.84;;;11.99;67.66
79457;BME280;69494;43.654;3.884;2023-04-25T22:07:00;101210.34;;;12.03;67.73
79457;BME280;69494;43.654;3.884;2023-04-25T22:09:25;101210.38;;;12.01;67.48
79457;BME280;69494;43.654;3.884;2023-04-25T22:11:52;101219.31;;;11.71;68.58
79457;BME280;69494;43.654;3.884;2023-04-25T22:14:19;101214.88;;;11.82;67.10
79457;BME280;69494;43.654;3.884;2023-04-25T22:16:46;101215.78;;;11.78;67.34
79457;BME280;69494;43.654;3.884;2023-04-25T22:19:12;101208.94;;;11.70;67.48
79457;BME280;69494;43.654;3.884;2023-04-25T22:21:37;101208.13;;;11.61;67.74
79457;BME280;69494;43.654;3.884;2023-04-25T22:24:03;101200.94;;;11.90;66.65
79457;BME280;69494;43.654;3.884;2023-04-25T22:26:30;101207.91;;;11.86;67.07
79457;BME280;69494;43.654;3.884;2023-04-25T22:28:57;101213.09;;;11.91;67.13
79457;BME280;69494;43.654;3.884;2023-04-25T22:31:23;101215.00;;;11.72;68.50
79457;BME280;69494;43.654;3.884;2023-04-25T22:33:48;101223.63;;;11.75;68.92
79457;BME280;69494;43.654;3.884;2023-04-25T22:36:14;101222.91;;;11.59;68.89
79457;BME280;69494;43.654;3.884;2023-04-25T22:38:40;101225.31;;;11.82;68.39
79457;BME280;69494;43.654;3.884;2023-04-25T22:41:06;101214.84;;;11.86;68.42
79457;BME280;69494;43.654;3.884;2023-04-25T22:43:33;101214.94;;;11.76;68.12
79457;BME280;69494;43.654;3.884;2023-04-25T22:45:59;101214.09;;;11.74;68.60
79457;BME280;69494;43.654;3.884;2023-04-25T22:48:26;101207.97;;;11.78;68.14
79457;BME280;69494;43.654;3.884;2023-04-25T22:51:03;101206.25;;;11.77;68.22
79457;BME280;69494;43.654;3.884;2023-04-25T22:53:29;101217.72;;;11.56;69.27
79457;BME280;69494;43.654;3.884;2023-04-25T22:55:56;101218.72;;;11.41;70.49
79457;BME280;69494;43.654;3.884;2023-04-25T22:58:22;101220.72;;;11.05;71.71
79457;BME280;69494;43.654;3.884;2023-04-25T23:00:49;101220.56;;;11.25;71.05
79457;BME280;69494;43.654;3.884;2023-04-25T23:03:16;101229.22;;;11.28;70.66
79457;BME280;69494;43.654;3.884;2023-04-25T23:05:41;101239.69;;;11.21;70.63
79457;BME280;69494;43.654;3.884;2023-04-25T23:08:08;101249.19;;;11.22;69.40
79457;BME280;69494;43.654;3.884;2023-04-25T23:10:33;101251.78;;;11.22;69.91
79457;BME280;69494;43.654;3.884;2023-04-25T23:12:59;101257.81;;;11.31;70.44
79457;BME280;69494;43.654;3.884;2023-04-25T23:15:28;101256.16;;;11.16;71.22
79457;BME280;69494;43.654;3.884;2023-04-25T23:17:56;101252.63;;;11.31;70.00
79457;BME280;69494;43.654;3.884;2023-04-25T23:20:21;101254.22;;;11.50;69.45
79457;BME280;69494;43.654;3.884;2023-04-25T23:22:48;101267.06;;;11.67;68.52
79457;BME280;69494;43.654;3.884;2023-04-25T23:25:14;101254.06;;;11.64;68.40
79457;BME280;69494;43.654;3.884;2023-04-25T23:27:39;101251.25;;;11.89;67.13
79457;BME280;69494;43.654;3.884;2023-04-25T23:30:06;101251.41;;;11.73;67.28
79457;BME280;69494;43.654;3.884;2023-04-25T23:32:32;101260.84;;;11.83;68.16
79457;BME280;69494;43.654;3.884;2023-04-25T23:34:58;101254.72;;;11.91;66.46
79457;BME280;69494;43.654;3.884;2023-04-25T23:37:23;101259.00;;;11.99;65.92
79457;BME280;69494;43.654;3.884;2023-04-25T23:39:49;101251.25;;;11.89;65.99
79457;BME280;69494;43.654;3.884;2023-04-25T23:42:16;101249.31;;;12.12;64.88
79457;BME280;69494;43.654;3.884;2023-04-25T23:44:42;101257.06;;;12.18;64.45
79457;BME280;69494;43.654;3.884;2023-04-25T23:47:08;101262.28;;;12.18;64.13
79457;BME280;69494;43.654;3.884;2023-04-25T23:49:33;101258.72;;;12.26;64.86
79457;BME280;69494;43.654;3.884;2023-04-25T23:51:58;101243.91;;;12.32;64.79
79457;BME280;69494;43.654;3.884;2023-04-25T23:54:24;101233.41;;;12.37;63.81
79457;BME280;69494;43.654;3.884;2023-04-25T23:56:49;101248.16;;;12.38;64.03
79457;BME280;69494;43.654;3.884;2023-04-25T23:59:15;101239.47;;;12.37;63.82
